sensor_id;sensor_type;location;lat;lon;timestamp;P1;durP1;ratioP1;P2;durP2;ratioP2
5135;SDS011;2586;48.710;9.202;2023-04-16T00:00:40;10.17;;;8.87;;
5135;SDS011;2586;48.710;9.202;2023-04-16T00:03:06;14.30;;;10.30;;
5135;SDS011;2586;48.710;9.202;2023-04-16T00:05:32;10.63;;;9.53;;
5135;SDS011;2586;48.710;9.202;2023-04-16T00:07:57;12.80;;;10.50;;
5135;SDS011;2586;48.710;9.202;2023-04-16T00:10:23;14.73;;;11.57;;
5135;SDS011;2586;48.710;9.202;2023-04-16T00:12:48;12.63;;;10.10;;
5135;SDS011;2586;48.710;9.202;2023-04-16T00:15:14;10.40;;;8.83;;
5135;SDS011;2586;48.710;9.202;2023-04-16T00:17:40;13.93;;;9.57;;
5135;SDS011;2586;48.710;9.202;2023-04-16T00:20:06;13.60;;;9.67;;
5135;SDS011;2586;48.710;9.202;2023-04-16T00:22:32;10.20;;;8.60;;
5135;SDS011;2586;48.710;9.202;2023-04-16T00:24:58;11.70;;;9.43;;
5135;SDS011;2586;48.710;9.202;2023-04-16T00:27:24;14.37;;;9.77;;
5135;SDS011;2586;48.710;9.202;2023-04-16T00:29:49;12.37;;;9.90;;
5135;SDS011;2586;48.710;9.202;2023-04-16T00:32:15;12.60;;;9.30;;
5135;SDS011;2586;48.710;9.202;2023-04-16T00:34:41;12.27;;;10.20;;
5135;SDS011;2586;48.710;9.202;2023-04-16T00:37:06;12.43;;;10.23;;
5135;SDS011;2586;48.710;9.202;2023-04-16T00:39:32;12.20;;;9.50;;
5135;SDS011;2586;48.710;9.202;2023-04-16T00:41:57;13.53;;;9.90;;
5135;SDS011;2586;48.710;9.202;2023-04-16T00:44:23;13.50;;;10.13;;
5135;SDS011;2586;48.710;9.202;2023-04-16T00:46:48;11.10;;;8.50;;
5135;SDS011;2586;48.710;9.202;2023-04-16T00:49:14;11.73;;;9.67;;
5135;SDS011;2586;48.710;9.202;2023-04-16T00:51:40;11.97;;;9.67;;
5135;SDS011;2586;48.710;9.202;2023-04-16T00:54:06;12.33;;;10.43;;
5135;SDS011;2586;48.710;9.202;2023-04-16T00:56:31;13.00;;;10.23;;
5135;SDS011;2586;48.710;9.202;2023-04-16T00:58:59;13.97;;;10.80;;
5135;SDS011;2586;48.710;9.202;2023-04-16T01:01:25;13.40;;;10.70;;
5135;SDS011;2586;48.710;9.202;2023-04-16T01:03:50;12.87;;;11.03;;
5135;SDS011;2586;48.710;9.202;2023-04-16T01:06:18;12.83;;;9.70;;
5135;SDS011;2586;48.710;9.202;2023-04-16T01:08:46;11.40;;;10.20;;
5135;SDS011;2586;48.710;9.202;2023-04-16T01:11:12;11.90;;;10.07;;
5135;SDS011;2586;48.710;9.202;2023-04-16T01:13:40;12.67;;;10.40;;
5135;SDS011;2586;48.710;9.202;2023-04-16T01:16:06;13.40;;;10.40;;
5135;SDS011;2586;48.710;9.202;2023-04-16T01:18:33;12.83;;;10.90;;
5135;SDS011;2586;48.710;9.202;2023-04-16T01:20:59;11.30;;;9.90;;
5135;SDS011;2586;48.710;9.202;2023-04-16T01:23:25;17.23;;;12.13;;
5135;SDS011;2586;48.710;9.202;2023-04-16T01:25:50;12.67;;;10.43;;
5135;SDS011;2586;48.710;9.202;2023-04-16T01:28:16;13.40;;;9.93;;
5135;SDS011;2586;48.710;9.202;2023-04-16T01:30:42;10.90;;;9.80;;
5135;SDS011;2586;48.710;9.202;2023-04-16T01:33:09;11.17;;;9.40;;
5135;SDS011;2586;48.710;9.202;2023-04-16T01:35:36;10.63;;;9.43;;
5135;SDS011;2586;48.710;9.202;2023-04-16T01:38:01;13.43;;;9.70;;
5135;SDS011;2586;48.710;9.202;2023-04-16T01:40:27;11.80;;;9.30;;
5135;SDS011;2586;48.710;9.202;2023-04-16T01:42:53;10.50;;;9.20;;
5135;SDS011;2586;48.710;9.202;2023-04-16T01:45:19;12.83;;;9.37;;
5135;SDS011;2586;48.710;9.202;2023-04-16T01:47:45;9.70;;;8.70;;
5135;SDS011;2586;48.710;9.202;2023-04-16T01:50:11;13.80;;;10.17;;
5135;SDS011;2586;48.710;9.202;2023-04-16T01:52:36;8.87;;;8.00;;
5135;SDS011;2586;48.710;9.202;2023-04-16T01:55:02;10.50;;;7.90;;
5135;SDS011;2586;48.710;9.202;2023-04-16T01:57:28;8.43;;;7.53;;
5135;SDS011;2586;48.710;9.202;2023-04-16T01:59:53;9.70;;;7.97;;
5135;SDS011;2586;48.710;9.202;2023-04-16T02:02:19;7.80;;;7.00;;
5135;SDS011;2586;48.710;9.202;2023-04-16T02:04:45;11.10;;;7.83;;
5135;SDS011;2586;48.710;9.202;2023-04-16T02:07:10;11.40;;;8.30;;
5135;SDS011;2586;48.710;9.202;2023-04-16T02:09:36;9.40;;;7.63;;
5135;SDS011;2586;48.710;9.202;2023-04-16T02:12:03;8.33;;;7.53;;
5135;SDS011;2586;48.710;9.202;2023-04-16T02:14:32;8.17;;;6.80;;
5135;SDS011;2586;48.710;9.202;2023-04-16T02:16:58;7.93;;;7.13;;
5135;SDS011;2586;48.710;9.202;2023-04-16T02:19:26;9.40;;;7.57;;
5135;SDS011;2586;48.710;9.202;2023-04-16T02:21:52;7.67;;;5.83;;
5135;SDS011;2586;48.710;9.202;2023-04-16T02:24:18;8.83;;;6.53;;
5135;SDS011;2586;48.710;9.202;2023-04-16T02:26:44;7.83;;;6.90;;
5135;SDS011;2586;48.710;9.202;2023-04-16T02:29:09;8.30;;;7.40;;
5135;SDS011;2586;48.710;9.202;2023-04-16T02:31:35;9.00;;;7.10;;
5135;SDS011;2586;48.710;9.202;2023-04-16T02:34:01;6.67;;;5.97;;
5135;SDS011;2586;48.710;9.202;2023-04-16T02:36:27;7.93;;;7.20;;
5135;SDS011;2586;48.710;9.202;2023-04-16T02:38:52;7.30;;;6.23;;
5135;SDS011;2586;48.710;9.202;2023-04-16T02:41:18;6.67;;;5.97;;
5135;SDS011;2586;48.710;9.202;2023-04-16T02:43:44;9.63;;;7.60;;
5135;SDS011;2586;48.710;9.202;2023-04-16T02:46:09;9.93;;;7.97;;
5135;SDS011;2586;48.710;9.202;2023-04-16T02:48:35;8.00;;;7.17;;
5135;SDS011;2586;48.710;9.202;2023-04-16T02:51:01;9.40;;;5.40;;
5135;SDS011;2586;48.710;9.202;2023-04-16T02:53:26;8.50;;;6.57;;
5135;SDS011;2586;48.710;9.202;2023-04-16T02:55:52;6.83;;;5.83;;
5135;SDS011;2586;48.710;9.202;2023-04-16T02:58:22;8.40;;;6.87;;
5135;SDS011;2586;48.710;9.202;2023-04-16T03:00:50;9.73;;;7.30;;
5135;SDS011;2586;48.710;9.202;2023-04-16T03:03:16;9.37;;;7.70;;
5135;SDS011;2586;48.710;9.202;2023-04-16T03:05:42;9.67;;;8.30;;
5135;SDS011;2586;48.710;9.202;2023-04-16T03:08:08;9.93;;;7.90;;
5135;SDS011;2586;48.710;9.202;2023-04-16T03:10:34;10.13;;;7.90;;
5135;SDS011;2586;48.710;9.202;2023-04-16T03:13:00;10.67;;;9.00;;
5135;SDS011;2586;48.710;9.202;2023-04-16T03:15:26;7.53;;;6.77;;
5135;SDS011;2586;48.710;9.202;2023-04-16T03:17:52;7.80;;;7.07;;
5135;SDS011;2586;48.710;9.202;2023-04-16T03:20:17;9.70;;;7.53;;
5135;SDS011;2586;48.710;9.202;2023-04-16T03:22:44;10.03;;;7.33;;
5135;SDS011;2586;48.710;9.202;2023-04-16T03:25:13;10.00;;;7.33;;
5135;SDS011;2586;48.710;9.202;2023-04-16T03:27:38;8.67;;;7.67;;
5135;SDS011;2586;48.710;9.202;2023-04-16T03:30:09;12.87;;;8.13;;
5135;SDS011;2586;48.710;9.202;2023-04-16T03:32:36;11.97;;;8.30;;
5135;SDS011;2586;48.710;9.202;2023-04-16T03:35:02;13.73;;;9.60;;
5135;SDS011;2586;48.710;9.202;2023-04-16T03:37:28;11.70;;;7.53;;
5135;SDS011;2586;48.710;9.202;2023-04-16T03:39:54;10.83;;;7.90;;
5135;SDS011;2586;48.710;9.202;2023-04-16T03:42:20;13.90;;;9.43;;
5135;SDS011;2586;48.710;9.202;2023-04-16T03:44:45;14.70;;;9.33;;
5135;SDS011;2586;48.710;9.202;2023-04-16T03:47:11;14.07;;;8.57;;
5135;SDS011;2586;48.710;9.202;2023-04-16T03:49:36;10.10;;;8.10;;
5135;SDS011;2586;48.710;9.202;2023-04-16T03:52:02;16.90;;;10.33;;
5135;SDS011;2586;48.710;9.202;2023-04-16T03:54:27;13.73;;;9.70;;
5135;SDS011;2586;48.710;9.202;2023-04-16T03:56:53;15.50;;;8.40;;
5135;SDS011;2586;48.710;9.202;2023-04-16T03:59:19;13.37;;;8.80;;
5135;SDS011;2586;48.710;9.202;2023-04-16T04:01:44;11.93;;;9.20;;
5135;SDS011;2586;48.710;9.202;2023-04-16T04:04:10;13.37;;;8.43;;
5135;SDS011;2586;48.710;9.202;2023-04-16T04:06:36;14.53;;;9.63;;
5135;SDS011;2586;48.710;9.202;2023-04-16T04:09:01;13.00;;;8.23;;
5135;SDS011;2586;48.710;9.202;2023-04-16T04:11:27;12.97;;;8.97;;
5135;SDS011;2586;48.710;9.202;2023-04-16T04:13:52;13.57;;;9.70;;
5135;SDS011;2586;48.710;9.202;2023-04-16T04:16:18;12.20;;;9.47;;
5135;SDS011;2586;48.710;9.202;2023-04-16T04:18:43;12.43;;;9.63;;
5135;SDS011;2586;48.710;9.202;2023-04-16T04:21:09;16.80;;;9.83;;
5135;SDS011;2586;48.710;9.202;2023-04-16T04:23:35;18.60;;;10.43;;
5135;SDS011;2586;48.710;9.202;2023-04-16T04:26:00;17.53;;;10.20;;
5135;SDS011;2586;48.710;9.202;2023-04-16T04:28:29;13.00;;;9.60;;
5135;SDS011;2586;48.710;9.202;2023-04-16T04:30:59;15.73;;;10.33;;
5135;SDS011;2586;48.710;9.202;2023-04-16T04:33:26;13.30;;;10.30;;
5135;SDS011;2586;48.710;9.202;2023-04-16T04:35:52;13.80;;;9.30;;
5135;SDS011;2586;48.710;9.202;2023-04-16T04:38:18;12.70;;;8.90;;
5135;SDS011;2586;48.710;9.202;2023-04-16T04:40:46;11.57;;;8.80;;
5135;SDS011;2586;48.710;9.202;2023-04-16T04:43:12;14.20;;;10.37;;
5135;SDS011;2586;48.710;9.202;2023-04-16T04:45:38;10.87;;;9.13;;
5135;SDS011;2586;48.710;9.202;2023-04-16T04:48:04;12.87;;;9.10;;
5135;SDS011;2586;48.710;9.202;2023-04-16T04:50:30;14.10;;;8.00;;
5135;SDS011;2586;48.710;9.202;2023-04-16T04:52:55;10.37;;;8.70;;
5135;SDS011;2586;48.710;9.202;2023-04-16T04:55:21;12.20;;;9.27;;
5135;SDS011;2586;48.710;9.202;2023-04-16T04:57:47;15.17;;;9.97;;
5135;SDS011;2586;48.710;9.202;2023-04-16T05:00:13;17.90;;;9.17;;
5135;SDS011;2586;48.710;9.202;2023-04-16T05:02:38;15.20;;;10.10;;
5135;SDS011;2586;48.710;9.202;2023-04-16T05:05:04;13.77;;;9.90;;
5135;SDS011;2586;48.710;9.202;2023-04-16T05:07:30;18.70;;;9.53;;
5135;SDS011;2586;48.710;9.202;2023-04-16T05:09:56;13.87;;;8.43;;
5135;SDS011;2586;48.710;9.202;2023-04-16T05:12:24;18.27;;;10.10;;
5135;SDS011;2586;48.710;9.202;2023-04-16T05:14:49;13.87;;;9.70;;
5135;SDS011;2586;48.710;9.202;2023-04-16T05:17:15;14.20;;;9.90;;
5135;SDS011;2586;48.710;9.202;2023-04-16T05:19:40;14.70;;;9.90;;
5135;SDS011;2586;48.710;9.202;2023-04-16T05:22:06;15.03;;;9.67;;
5135;SDS011;2586;48.710;9.202;2023-04-16T05:24:32;14.13;;;9.90;;
5135;SDS011;2586;48.710;9.202;2023-04-16T05:26:57;14.93;;;8.53;;
5135;SDS011;2586;48.710;9.202;2023-04-16T05:29:23;11.73;;;7.57;;
5135;SDS011;2586;48.710;9.202;2023-04-16T05:31:48;13.60;;;9.60;;
5135;SDS011;2586;48.710;9.202;2023-04-16T05:34:14;20.40;;;9.70;;
5135;SDS011;2586;48.710;9.202;2023-04-16T05:36:40;14.83;;;9.60;;
5135;SDS011;2586;48.710;9.202;2023-04-16T05:39:05;14.60;;;9.50;;
5135;SDS011;2586;48.710;9.202;2023-04-16T05:41:31;15.90;;;9.67;;
5135;SDS011;2586;48.710;9.202;2023-04-16T05:43:57;20.60;;;12.20;;
5135;SDS011;2586;48.710;9.202;2023-04-16T05:46:23;21.80;;;13.33;;
5135;SDS011;2586;48.710;9.202;2023-04-16T05:48:48;21.07;;;13.37;;
5135;SDS011;2586;48.710;9.202;2023-04-16T05:51:14;23.83;;;14.00;;
5135;SDS011;2586;48.710;9.202;2023-04-16T05:53:40;24.13;;;14.33;;
5135;SDS011;2586;48.710;9.202;2023-04-16T05:56:06;28.97;;;17.20;;
5135;SDS011;2586;48.710;9.202;2023-04-16T05:58:31;28.53;;;18.10;;
5135;SDS011;2586;48.710;9.202;2023-04-16T06:00:57;36.67;;;18.10;;
5135;SDS011;2586;48.710;9.202;2023-04-16T06:03:23;31.77;;;17.43;;
5135;SDS011;2586;48.710;9.202;2023-04-16T06:05:49;35.23;;;20.87;;
5135;SDS011;2586;48.710;9.202;2023-04-16T06:08:14;35.77;;;20.63;;
5135;SDS011;2586;48.710;9.202;2023-04-16T06:10:40;36.50;;;20.87;;
5135;SDS011;2586;48.710;9.202;2023-04-16T06:13:05;41.00;;;21.67;;
5135;SDS011;2586;48.710;9.202;2023-04-16T06:15:31;41.30;;;23.30;;
5135;SDS011;2586;48.710;9.202;2023-04-16T06:17:57;44.47;;;23.77;;
5135;SDS011;2586;48.710;9.202;2023-04-16T06:20:22;39.67;;;23.10;;
5135;SDS011;2586;48.710;9.202;2023-04-16T06:22:48;46.70;;;24.70;;
5135;SDS011;2586;48.710;9.202;2023-04-16T06:25:14;45.40;;;23.27;;
5135;SDS011;2586;48.710;9.202;2023-04-16T06:27:40;40.80;;;22.33;;
5135;SDS011;2586;48.710;9.202;2023-04-16T06:30:10;42.50;;;24.47;;
5135;SDS011;2586;48.710;9.202;2023-04-16T06:32:37;53.27;;;26.30;;
5135;SDS011;2586;48.710;9.202;2023-04-16T06:35:02;47.67;;;23.80;;
5135;SDS011;2586;48.710;9.202;2023-04-16T06:37:28;47.33;;;23.20;;
5135;SDS011;2586;48.710;9.202;2023-04-16T06:39:54;41.67;;;24.10;;
5135;SDS011;2586;48.710;9.202;2023-04-16T06:42:19;35.93;;;21.57;;
5135;SDS011;2586;48.710;9.202;2023-04-16T06:44:45;49.27;;;23.23;;
5135;SDS011;2586;48.710;9.202;2023-04-16T06:47:11;41.63;;;23.30;;
5135;SDS011;2586;48.710;9.202;2023-04-16T06:49:37;52.17;;;23.30;;
5135;SDS011;2586;48.710;9.202;2023-04-16T06:52:03;40.60;;;22.50;;
5135;SDS011;2586;48.710;9.202;2023-04-16T06:54:29;44.53;;;24.60;;
5135;SDS011;2586;48.710;9.202;2023-04-16T06:56:55;51.67;;;24.00;;
5135;SDS011;2586;48.710;9.202;2023-04-16T06:59:21;46.43;;;23.97;;
5135;SDS011;2586;48.710;9.202;2023-04-16T07:01:46;41.97;;;23.43;;
5135;SDS011;2586;48.710;9.202;2023-04-16T07:04:12;40.20;;;22.10;;
5135;SDS011;2586;48.710;9.202;2023-04-16T07:06:38;39.40;;;21.90;;
5135;SDS011;2586;48.710;9.202;2023-04-16T07:09:03;49.40;;;23.80;;
5135;SDS011;2586;48.710;9.202;2023-04-16T07:11:29;40.67;;;22.57;;
5135;SDS011;2586;48.710;9.202;2023-04-16T07:13:54;43.43;;;23.07;;
5135;SDS011;2586;48.710;9.202;2023-04-16T07:16:21;41.10;;;21.57;;
5135;SDS011;2586;48.710;9.202;2023-04-16T07:18:47;41.40;;;23.60;;
5135;SDS011;2586;48.710;9.202;2023-04-16T07:21:12;42.87;;;23.47;;
5135;SDS011;2586;48.710;9.202;2023-04-16T07:23:38;37.17;;;21.23;;
5135;SDS011;2586;48.710;9.202;2023-04-16T07:26:04;39.20;;;23.43;;
5135;SDS011;2586;48.710;9.202;2023-04-16T07:28:30;42.03;;;24.07;;
5135;SDS011;2586;48.710;9.202;2023-04-16T07:30:55;47.30;;;22.70;;
5135;SDS011;2586;48.710;9.202;2023-04-16T07:33:21;50.57;;;24.87;;
5135;SDS011;2586;48.710;9.202;2023-04-16T07:35:46;39.03;;;22.23;;
5135;SDS011;2586;48.710;9.202;2023-04-16T07:38:12;42.07;;;22.80;;
5135;SDS011;2586;48.710;9.202;2023-04-16T07:40:38;41.23;;;20.67;;
5135;SDS011;2586;48.710;9.202;2023-04-16T07:43:04;42.37;;;23.10;;
5135;SDS011;2586;48.710;9.202;2023-04-16T07:45:29;42.37;;;22.70;;
5135;SDS011;2586;48.710;9.202;2023-04-16T07:47:55;39.77;;;23.67;;
5135;SDS011;2586;48.710;9.202;2023-04-16T07:50:20;39.20;;;21.40;;
5135;SDS011;2586;48.710;9.202;2023-04-16T07:52:46;46.30;;;23.90;;
5135;SDS011;2586;48.710;9.202;2023-04-16T07:55:12;33.97;;;21.50;;
5135;SDS011;2586;48.710;9.202;2023-04-16T07:57:37;35.33;;;20.33;;
5135;SDS011;2586;48.710;9.202;2023-04-16T08:00:04;35.63;;;21.10;;
5135;SDS011;2586;48.710;9.202;2023-04-16T08:02:30;39.20;;;22.80;;
5135;SDS011;2586;48.710;9.202;2023-04-16T08:04:56;38.73;;;20.17;;
5135;SDS011;2586;48.710;9.202;2023-04-16T08:07:21;39.00;;;22.60;;
5135;SDS011;2586;48.710;9.202;2023-04-16T08:09:47;37.53;;;21.03;;
5135;SDS011;2586;48.710;9.202;2023-04-16T08:12:13;33.50;;;21.40;;
5135;SDS011;2586;48.710;9.202;2023-04-16T08:14:41;36.07;;;21.03;;
5135;SDS011;2586;48.710;9.202;2023-04-16T08:17:06;40.07;;;22.77;;
5135;SDS011;2586;48.710;9.202;2023-04-16T08:19:32;35.40;;;21.60;;
5135;SDS011;2586;48.710;9.202;2023-04-16T08:21:57;40.17;;;21.80;;
5135;SDS011;2586;48.710;9.202;2023-04-16T08:24:23;46.00;;;23.10;;
5135;SDS011;2586;48.710;9.202;2023-04-16T08:26:49;40.43;;;20.87;;
5135;SDS011;2586;48.710;9.202;2023-04-16T08:29:15;31.77;;;20.23;;
5135;SDS011;2586;48.710;9.202;2023-04-16T08:31:40;37.10;;;20.83;;
5135;SDS011;2586;48.710;9.202;2023-04-16T08:34:06;36.93;;;20.90;;
5135;SDS011;2586;48.710;9.202;2023-04-16T08:36:31;33.67;;;19.13;;
5135;SDS011;2586;48.710;9.202;2023-04-16T08:38:57;31.70;;;19.17;;
5135;SDS011;2586;48.710;9.202;2023-04-16T08:41:23;38.10;;;22.33;;
5135;SDS011;2586;48.710;9.202;2023-04-16T08:43:50;31.90;;;19.70;;
5135;SDS011;2586;48.710;9.202;2023-04-16T08:46:20;29.23;;;19.17;;
5135;SDS011;2586;48.710;9.202;2023-04-16T08:48:48;34.93;;;19.90;;
5135;SDS011;2586;48.710;9.202;2023-04-16T08:51:19;29.67;;;19.67;;
5135;SDS011;2586;48.710;9.202;2023-04-16T08:53:47;33.03;;;20.23;;
5135;SDS011;2586;48.710;9.202;2023-04-16T08:56:16;29.10;;;18.50;;
5135;SDS011;2586;48.710;9.202;2023-04-16T08:58:50;31.47;;;19.60;;
5135;SDS011;2586;48.710;9.202;2023-04-16T09:01:18;27.30;;;18.87;;
5135;SDS011;2586;48.710;9.202;2023-04-16T09:03:48;25.57;;;17.50;;
5135;SDS011;2586;48.710;9.202;2023-04-16T09:06:14;31.80;;;18.00;;
5135;SDS011;2586;48.710;9.202;2023-04-16T09:08:40;29.40;;;19.00;;
5135;SDS011;2586;48.710;9.202;2023-04-16T09:11:08;23.50;;;17.90;;
5135;SDS011;2586;48.710;9.202;2023-04-16T09:13:34;27.07;;;18.67;;
5135;SDS011;2586;48.710;9.202;2023-04-16T09:16:02;26.77;;;17.03;;
5135;SDS011;2586;48.710;9.202;2023-04-16T09:18:29;20.37;;;14.20;;
5135;SDS011;2586;48.710;9.202;2023-04-16T09:20:54;29.23;;;17.27;;
5135;SDS011;2586;48.710;9.202;2023-04-16T09:23:21;25.60;;;16.20;;
5135;SDS011;2586;48.710;9.202;2023-04-16T09:25:46;23.70;;;15.60;;
5135;SDS011;2586;48.710;9.202;2023-04-16T09:28:12;27.50;;;15.33;;
5135;SDS011;2586;48.710;9.202;2023-04-16T09:31:18;25.20;;;15.73;;
5135;SDS011;2586;48.710;9.202;2023-04-16T09:33:59;25.20;;;15.00;;
5135;SDS011;2586;48.710;9.202;2023-04-16T09:36:30;22.67;;;15.13;;
5135;SDS011;2586;48.710;9.202;2023-04-16T09:38:57;29.10;;;16.63;;
5135;SDS011;2586;48.710;9.202;2023-04-16T09:41:23;32.87;;;17.27;;
5135;SDS011;2586;48.710;9.202;2023-04-16T09:43:56;29.50;;;18.90;;
5135;SDS011;2586;48.710;9.202;2023-04-16T09:46:33;24.67;;;15.07;;
5135;SDS011;2586;48.710;9.202;2023-04-16T09:49:13;24.17;;;16.70;;
5135;SDS011;2586;48.710;9.202;2023-04-16T09:51:40;24.63;;;17.33;;
5135;SDS011;2586;48.710;9.202;2023-04-16T09:54:07;27.23;;;16.57;;
5135;SDS011;2586;48.710;9.202;2023-04-16T09:56:33;24.63;;;16.17;;
5135;SDS011;2586;48.710;9.202;2023-04-16T09:59:07;32.80;;;17.90;;
5135;SDS011;2586;48.710;9.202;2023-04-16T10:01:41;26.13;;;15.17;;
5135;SDS011;2586;48.710;9.202;2023-04-16T10:04:07;23.90;;;15.23;;
5135;SDS011;2586;48.710;9.202;2023-04-16T10:06:32;26.40;;;15.90;;
5135;SDS011;2586;48.710;9.202;2023-04-16T10:08:58;27.30;;;15.83;;
5135;SDS011;2586;48.710;9.202;2023-04-16T10:11:23;26.40;;;16.90;;
5135;SDS011;2586;48.710;9.202;2023-04-16T10:13:49;25.33;;;14.43;;
5135;SDS011;2586;48.710;9.202;2023-04-16T10:16:15;29.60;;;17.40;;
5135;SDS011;2586;48.710;9.202;2023-04-16T10:18:42;26.50;;;15.17;;
5135;SDS011;2586;48.710;9.202;2023-04-16T10:21:09;26.53;;;15.70;;
5135;SDS011;2586;48.710;9.202;2023-04-16T10:23:39;26.33;;;16.43;;
5135;SDS011;2586;48.710;9.202;2023-04-16T10:26:06;25.67;;;15.40;;
5135;SDS011;2586;48.710;9.202;2023-04-16T10:28:32;21.73;;;14.87;;
5135;SDS011;2586;48.710;9.202;2023-04-16T10:30:59;30.47;;;16.57;;
5135;SDS011;2586;48.710;9.202;2023-04-16T10:33:27;28.00;;;16.57;;
5135;SDS011;2586;48.710;9.202;2023-04-16T10:36:28;27.70;;;16.93;;
5135;SDS011;2586;48.710;9.202;2023-04-16T10:38:50;30.00;;;17.10;;
5135;SDS011;2586;48.710;9.202;2023-04-16T10:41:18;27.67;;;16.60;;
5135;SDS011;2586;48.710;9.202;2023-04-16T10:43:45;31.10;;;17.33;;
5135;SDS011;2586;48.710;9.202;2023-04-16T10:49:12;25.13;;;16.37;;
5135;SDS011;2586;48.710;9.202;2023-04-16T10:54:27;31.80;;;16.40;;
5135;SDS011;2586;48.710;9.202;2023-04-16T10:57:02;28.03;;;16.00;;
5135;SDS011;2586;48.710;9.202;2023-04-16T10:59:30;25.33;;;13.87;;
5135;SDS011;2586;48.710;9.202;2023-04-16T11:01:59;26.97;;;16.77;;
5135;SDS011;2586;48.710;9.202;2023-04-16T11:04:27;29.43;;;14.30;;
5135;SDS011;2586;48.710;9.202;2023-04-16T11:15:12;16.93;;;12.80;;
5135;SDS011;2586;48.710;9.202;2023-04-16T11:17:41;23.53;;;13.03;;
5135;SDS011;2586;48.710;9.202;2023-04-16T11:20:18;21.77;;;14.20;;
5135;SDS011;2586;48.710;9.202;2023-04-16T11:22:49;20.30;;;11.70;;
5135;SDS011;2586;48.710;9.202;2023-04-16T11:25:19;20.70;;;12.40;;
5135;SDS011;2586;48.710;9.202;2023-04-16T11:27:46;15.57;;;11.30;;
5135;SDS011;2586;48.710;9.202;2023-04-16T11:30:11;15.70;;;10.83;;
5135;SDS011;2586;48.710;9.202;2023-04-16T11:32:37;14.60;;;8.80;;
5135;SDS011;2586;48.710;9.202;2023-04-16T11:35:06;13.37;;;8.97;;
5135;SDS011;2586;48.710;9.202;2023-04-16T11:37:38;21.77;;;9.90;;
5135;SDS011;2586;48.710;9.202;2023-04-16T11:40:04;12.77;;;8.17;;
5135;SDS011;2586;48.710;9.202;2023-04-16T11:42:31;13.80;;;7.20;;
5135;SDS011;2586;48.710;9.202;2023-04-16T11:44:58;7.97;;;6.43;;
5135;SDS011;2586;48.710;9.202;2023-04-16T11:47:27;10.33;;;6.43;;
5135;SDS011;2586;48.710;9.202;2023-04-16T11:49:54;8.80;;;6.27;;
5135;SDS011;2586;48.710;9.202;2023-04-16T11:52:24;10.83;;;8.30;;
5135;SDS011;2586;48.710;9.202;2023-04-16T11:54:54;8.67;;;5.90;;
5135;SDS011;2586;48.710;9.202;2023-04-16T11:57:23;10.53;;;6.83;;
5135;SDS011;2586;48.710;9.202;2023-04-16T11:59:52;7.70;;;6.80;;
5135;SDS011;2586;48.710;9.202;2023-04-16T12:05:04;7.37;;;6.07;;
5135;SDS011;2586;48.710;9.202;2023-04-16T12:07:31;6.87;;;4.60;;
5135;SDS011;2586;48.710;9.202;2023-04-16T12:10:07;7.00;;;6.30;;
5135;SDS011;2586;48.710;9.202;2023-04-16T12:12:33;6.83;;;5.27;;
5135;SDS011;2586;48.710;9.202;2023-04-16T12:14:59;7.87;;;5.50;;
5135;SDS011;2586;48.710;9.202;2023-04-16T12:17:32;7.63;;;5.90;;
5135;SDS011;2586;48.710;9.202;2023-04-16T12:19:59;7.40;;;5.10;;
5135;SDS011;2586;48.710;9.202;2023-04-16T12:22:30;9.17;;;4.07;;
5135;SDS011;2586;48.710;9.202;2023-04-16T12:24:59;4.07;;;3.73;;
5135;SDS011;2586;48.710;9.202;2023-04-16T12:30:12;6.23;;;4.60;;
5135;SDS011;2586;48.710;9.202;2023-04-16T12:32:40;5.50;;;4.10;;
5135;SDS011;2586;48.710;9.202;2023-04-16T12:35:06;5.83;;;4.10;;
5135;SDS011;2586;48.710;9.202;2023-04-16T12:37:33;4.20;;;3.60;;
5135;SDS011;2586;48.710;9.202;2023-04-16T12:40:00;5.10;;;3.10;;
5135;SDS011;2586;48.710;9.202;2023-04-16T12:42:25;3.90;;;3.60;;
5135;SDS011;2586;48.710;9.202;2023-04-16T12:44:51;3.67;;;3.37;;
5135;SDS011;2586;48.710;9.202;2023-04-16T12:47:17;4.40;;;3.10;;
5135;SDS011;2586;48.710;9.202;2023-04-16T12:49:42;3.93;;;3.30;;
5135;SDS011;2586;48.710;9.202;2023-04-16T12:52:08;4.37;;;3.23;;
5135;SDS011;2586;48.710;9.202;2023-04-16T12:54:34;3.87;;;3.50;;
5135;SDS011;2586;48.710;9.202;2023-04-16T12:57:00;3.87;;;3.50;;
5135;SDS011;2586;48.710;9.202;2023-04-16T12:59:25;4.20;;;3.80;;
5135;SDS011;2586;48.710;9.202;2023-04-16T13:01:51;3.43;;;3.13;;
5135;SDS011;2586;48.710;9.202;2023-04-16T13:04:17;3.53;;;3.23;;
5135;SDS011;2586;48.710;9.202;2023-04-16T13:06:45;4.40;;;4.00;;
5135;SDS011;2586;48.710;9.202;2023-04-16T13:09:11;6.33;;;4.77;;
5135;SDS011;2586;48.710;9.202;2023-04-16T13:11:36;5.40;;;4.03;;
5135;SDS011;2586;48.710;9.202;2023-04-16T13:14:02;4.63;;;4.23;;
5135;SDS011;2586;48.710;9.202;2023-04-16T13:16:27;3.60;;;3.30;;
5135;SDS011;2586;48.710;9.202;2023-04-16T13:18:53;11.77;;;5.03;;
5135;SDS011;2586;48.710;9.202;2023-04-16T13:21:18;5.53;;;4.33;;
5135;SDS011;2586;48.710;9.202;2023-04-16T13:23:44;6.00;;;4.60;;
5135;SDS011;2586;48.710;9.202;2023-04-16T13:26:09;7.70;;;4.00;;
5135;SDS011;2586;48.710;9.202;2023-04-16T13:28:37;7.17;;;4.90;;
5135;SDS011;2586;48.710;9.202;2023-04-16T13:31:02;4.73;;;4.23;;
5135;SDS011;2586;48.710;9.202;2023-04-16T13:33:28;4.07;;;3.70;;
5135;SDS011;2586;48.710;9.202;2023-04-16T13:35:54;4.80;;;4.27;;
5135;SDS011;2586;48.710;9.202;2023-04-16T13:38:19;4.67;;;4.20;;
5135;SDS011;2586;48.710;9.202;2023-04-16T13:40:45;4.90;;;4.40;;
5135;SDS011;2586;48.710;9.202;2023-04-16T13:43:11;4.23;;;3.93;;
5135;SDS011;2586;48.710;9.202;2023-04-16T13:45:37;4.50;;;4.10;;
5135;SDS011;2586;48.710;9.202;2023-04-16T13:48:03;6.00;;;4.40;;
5135;SDS011;2586;48.710;9.202;2023-04-16T13:50:29;6.37;;;5.23;;
5135;SDS011;2586;48.710;9.202;2023-04-16T13:52:55;6.00;;;4.90;;
5135;SDS011;2586;48.710;9.202;2023-04-16T13:55:20;6.60;;;4.97;;
5135;SDS011;2586;48.710;9.202;2023-04-16T13:57:46;6.50;;;5.70;;
5135;SDS011;2586;48.710;9.202;2023-04-16T14:00:12;10.67;;;5.27;;
5135;SDS011;2586;48.710;9.202;2023-04-16T14:02:40;5.80;;;5.20;;
5135;SDS011;2586;48.710;9.202;2023-04-16T14:05:06;10.40;;;6.50;;
5135;SDS011;2586;48.710;9.202;2023-04-16T14:07:36;8.20;;;5.97;;
5135;SDS011;2586;48.710;9.202;2023-04-16T14:10:05;7.30;;;6.20;;
5135;SDS011;2586;48.710;9.202;2023-04-16T14:12:31;8.17;;;5.63;;
5135;SDS011;2586;48.710;9.202;2023-04-16T14:14:57;7.47;;;5.47;;
5135;SDS011;2586;48.710;9.202;2023-04-16T14:17:22;7.67;;;6.00;;
5135;SDS011;2586;48.710;9.202;2023-04-16T14:19:48;9.17;;;6.30;;
5135;SDS011;2586;48.710;9.202;2023-04-16T14:22:14;10.07;;;6.97;;
5135;SDS011;2586;48.710;9.202;2023-04-16T14:24:42;9.87;;;6.20;;
5135;SDS011;2586;48.710;9.202;2023-04-16T14:27:07;9.43;;;7.10;;
5135;SDS011;2586;48.710;9.202;2023-04-16T14:29:33;8.90;;;6.90;;
5135;SDS011;2586;48.710;9.202;2023-04-16T14:32:00;8.83;;;7.30;;
5135;SDS011;2586;48.710;9.202;2023-04-16T14:34:26;10.60;;;7.33;;
5135;SDS011;2586;48.710;9.202;2023-04-16T14:36:52;11.00;;;7.30;;
5135;SDS011;2586;48.710;9.202;2023-04-16T14:39:17;9.90;;;7.80;;
5135;SDS011;2586;48.710;9.202;2023-04-16T14:41:43;8.93;;;6.90;;
5135;SDS011;2586;48.710;9.202;2023-04-16T14:44:08;12.30;;;7.43;;
5135;SDS011;2586;48.710;9.202;2023-04-16T14:46:34;10.87;;;7.60;;
5135;SDS011;2586;48.710;9.202;2023-04-16T14:49:00;11.20;;;7.47;;
5135;SDS011;2586;48.710;9.202;2023-04-16T14:51:25;13.13;;;8.23;;
5135;SDS011;2586;48.710;9.202;2023-04-16T14:53:51;15.40;;;9.23;;
5135;SDS011;2586;48.710;9.202;2023-04-16T14:56:17;11.20;;;9.00;;
5135;SDS011;2586;48.710;9.202;2023-04-16T14:58:42;11.83;;;8.57;;
5135;SDS011;2586;48.710;9.202;2023-04-16T15:01:08;16.43;;;10.80;;
5135;SDS011;2586;48.710;9.202;2023-04-16T15:03:33;17.27;;;10.60;;
5135;SDS011;2586;48.710;9.202;2023-04-16T15:06:00;14.90;;;11.13;;
5135;SDS011;2586;48.710;9.202;2023-04-16T15:08:25;14.83;;;9.73;;
5135;SDS011;2586;48.710;9.202;2023-04-16T15:10:51;17.00;;;11.00;;
5135;SDS011;2586;48.710;9.202;2023-04-16T15:13:16;23.17;;;14.80;;